Breidablick, Washington
Current Conditions -  °F | °C
As of 10:15 AM on Sunday 25 Jan 2015 (Local Time) from KPWT Reporting Station
Overcast Overcast  
Wind Chill: 52°   Ceiling: 400
Heat Index: 52°   Visibility: 8mi
Dew Point: 52°   Wind: 3mph
Humidity: 100%   Direction: 180°S
Pressure: 30.19"   Gusts: NA
Location:  47.7571°N, 122.623°W
Report Text: KPWT 251815Z AUTO 18003KT 8SM OVC004 11/11 A3019 RMK AO1
Loading
Personal Weather Stations






























Interactive Weather Map New forecast layout! Learn more

10-Day Weather Forecast

Advertisements
Track Severe Weather on mobile